createdAt,value
2023-04-04T00:00:40.282Z,4.70
2023-04-04T00:03:10.293Z,4.03
2023-04-04T00:05:37.220Z,4.43
2023-04-04T00:08:04.150Z,4.03
2023-04-04T00:10:30.927Z,3.63
2023-04-04T00:12:57.783Z,6.72
2023-04-04T00:15:24.358Z,4.35
2023-04-04T00:17:51.003Z,3.92
2023-04-04T00:20:17.761Z,3.47
2023-04-04T00:22:44.916Z,4.07
2023-04-04T00:25:12.647Z,4.55
2023-04-04T00:27:39.183Z,4.05
2023-04-04T00:30:06.640Z,3.20
2023-04-04T00:32:33.386Z,5.85
2023-04-04T00:35:00.627Z,4.05
2023-04-04T00:37:28.245Z,2.40
2023-04-04T00:39:55.013Z,3.35
2023-04-04T00:42:21.715Z,3.63
2023-04-04T00:44:48.925Z,5.07
2023-04-04T00:47:15.792Z,3.47
2023-04-04T00:49:42.880Z,4.32
2023-04-04T00:52:09.500Z,5.20
2023-04-04T00:54:36.585Z,5.65
2023-04-04T00:57:08.496Z,4.03
2023-04-04T00:59:35.570Z,4.53
2023-04-04T01:02:02.572Z,4.82
2023-04-04T01:04:32.189Z,3.58
2023-04-04T01:06:59.273Z,5.35
2023-04-04T01:09:26.183Z,5.35
2023-04-04T01:11:54.980Z,3.05
2023-04-04T01:14:21.811Z,6.15
2023-04-04T01:16:49.790Z,4.75
2023-04-04T01:19:26.743Z,4.47
2023-04-04T01:21:54.071Z,3.55
2023-04-04T01:24:21.968Z,5.22
2023-04-04T01:26:56.163Z,3.08
2023-04-04T01:29:23.119Z,5.80
2023-04-04T01:32:01.104Z,3.85
2023-04-04T01:34:37.004Z,6.47
2023-04-04T01:37:03.709Z,3.75
2023-04-04T01:39:37.079Z,2.75
2023-04-04T01:42:03.976Z,3.05
2023-04-04T01:44:31.443Z,5.55
2023-04-04T01:46:58.118Z,4.07
2023-04-04T01:49:24.967Z,5.45
2023-04-04T01:51:53.030Z,3.20
2023-04-04T01:54:21.311Z,4.97
2023-04-04T01:56:47.915Z,3.58
2023-04-04T01:59:14.726Z,6.20
2023-04-04T02:01:48.199Z,2.00
2023-04-04T02:04:15.473Z,5.00
2023-04-04T02:06:42.249Z,6.45
2023-04-04T02:09:09.804Z,4.80
2023-04-04T02:11:37.817Z,2.88
2023-04-04T02:14:05.309Z,6.63
2023-04-04T02:16:32.615Z,3.80
2023-04-04T02:19:00.112Z,4.68
2023-04-04T02:21:27.381Z,7.70
2023-04-04T02:23:54.241Z,5.40
2023-04-04T02:26:21.564Z,2.40
2023-04-04T02:28:48.157Z,4.70
2023-04-04T02:31:14.781Z,4.82
2023-04-04T02:33:41.776Z,4.60
2023-04-04T02:36:09.957Z,3.05
2023-04-04T02:38:38.553Z,6.43
2023-04-04T02:41:06.165Z,4.25
2023-04-04T02:43:33.369Z,3.22
2023-04-04T02:46:14.463Z,3.15
2023-04-04T02:48:45.925Z,5.13
2023-04-04T02:51:13.665Z,5.65
2023-04-04T02:53:40.409Z,4.00
2023-04-04T02:56:19.803Z,2.90
2023-04-04T02:58:46.725Z,5.00
2023-04-04T03:01:13.785Z,4.00
2023-04-04T03:03:40.582Z,3.05
2023-04-04T03:06:07.540Z,3.05
2023-04-04T03:08:35.931Z,5.68
2023-04-04T03:11:06.738Z,4.25
2023-04-04T03:13:33.476Z,5.05
2023-04-04T03:16:03.421Z,7.38
2023-04-04T03:18:40.268Z,4.57
2023-04-04T03:21:07.501Z,4.03
2023-04-04T03:23:35.162Z,6.65
2023-04-04T03:26:02.584Z,6.03
2023-04-04T03:28:29.433Z,5.28
2023-04-04T03:30:56.083Z,5.65
2023-04-04T03:33:22.872Z,3.78
2023-04-04T03:35:50.099Z,4.60
2023-04-04T03:38:17.110Z,8.10
2023-04-04T03:40:44.536Z,4.53
2023-04-04T03:43:12.985Z,7.55
2023-04-04T03:45:41.354Z,4.82
2023-04-04T03:50:51.023Z,6.05
2023-04-04T03:53:18.242Z,5.15
2023-04-04T03:55:45.177Z,9.88
2023-04-04T03:58:11.753Z,4.75
2023-04-04T04:00:38.958Z,6.05
2023-04-04T04:03:06.806Z,5.47
2023-04-04T04:05:33.740Z,3.15
2023-04-04T04:10:41.608Z,6.63
2023-04-04T04:13:09.519Z,4.68
2023-04-04T04:15:37.534Z,3.80
2023-04-04T04:18:10.384Z,4.40
2023-04-04T04:20:37.835Z,6.53
2023-04-04T04:23:04.405Z,7.07
2023-04-04T04:25:31.599Z,6.07
2023-04-04T04:28:11.309Z,4.68
2023-04-04T04:30:38.882Z,5.60
2023-04-04T04:33:05.782Z,5.65
2023-04-04T04:35:42.804Z,5.88
2023-04-04T04:38:10.747Z,7.45
2023-04-04T04:40:38.716Z,5.72
2023-04-04T04:43:12.503Z,4.22
2023-04-04T04:45:41.558Z,7.28
2023-04-04T04:48:09.778Z,8.50
2023-04-04T04:50:47.432Z,3.97
2023-04-04T04:53:19.049Z,6.18
2023-04-04T04:55:48.197Z,4.93
2023-04-04T04:58:17.565Z,7.57
2023-04-04T05:00:48.709Z,6.80
2023-04-04T05:03:15.437Z,6.45
2023-04-04T05:05:48.095Z,4.45
2023-04-04T05:08:15.791Z,6.05
2023-04-04T05:11:03.939Z,7.10
2023-04-04T05:13:32.903Z,5.35
2023-04-04T05:16:00.139Z,7.15
2023-04-04T05:18:32.007Z,6.10
2023-04-04T05:20:59.532Z,11.00
2023-04-04T05:23:28.551Z,5.72
2023-04-04T05:25:56.332Z,4.05
2023-04-04T05:28:26.152Z,5.93
2023-04-04T05:30:58.158Z,8.63
2023-04-04T05:33:27.045Z,4.72
2023-04-04T05:36:04.494Z,6.20
2023-04-04T05:38:33.461Z,4.68
2023-04-04T05:40:59.981Z,6.97
2023-04-04T05:43:27.400Z,5.45
2023-04-04T05:46:00.567Z,5.32
2023-04-04T05:48:30.426Z,8.02
2023-04-04T05:50:57.127Z,10.15
2023-04-04T05:53:35.836Z,7.13
2023-04-04T05:56:04.133Z,5.43
2023-04-04T05:58:33.219Z,11.68
2023-04-04T06:01:02.508Z,6.60
2023-04-04T06:03:29.451Z,7.65
2023-04-04T06:05:58.020Z,7.43
2023-04-04T06:08:24.862Z,5.75
2023-04-04T06:10:52.741Z,6.85
2023-04-04T06:13:20.226Z,6.93
2023-04-04T06:15:52.716Z,7.65
2023-04-04T06:18:20.898Z,6.93
2023-04-04T06:20:48.472Z,7.15
2023-04-04T06:23:16.488Z,7.90
2023-04-04T06:25:46.607Z,9.60
2023-04-04T06:28:17.324Z,6.00
2023-04-04T06:30:46.835Z,8.60
2023-04-04T06:33:17.160Z,7.50
2023-04-04T06:35:47.413Z,6.07
2023-04-04T06:38:15.652Z,6.18
2023-04-04T06:40:42.551Z,10.20
2023-04-04T06:43:10.490Z,8.75
2023-04-04T06:45:39.990Z,5.80
2023-04-04T06:48:07.082Z,9.13
2023-04-04T06:50:34.019Z,6.80
2023-04-04T06:53:03.743Z,7.38
2023-04-04T06:55:30.449Z,7.40
2023-04-04T06:57:58.040Z,6.38
2023-04-04T07:00:25.056Z,6.20
2023-04-04T07:02:57.293Z,6.90
2023-04-04T07:05:24.116Z,5.18
2023-04-04T07:07:57.351Z,12.27
2023-04-04T07:10:24.967Z,3.97
2023-04-04T07:12:52.083Z,6.25
2023-04-04T07:15:19.286Z,9.13
2023-04-04T07:17:46.044Z,7.28
2023-04-04T07:20:13.752Z,10.73
2023-04-04T07:22:41.096Z,5.90
2023-04-04T07:25:08.851Z,6.80
2023-04-04T07:27:36.135Z,6.55
2023-04-04T07:30:03.498Z,4.53
2023-04-04T07:32:30.301Z,6.82
2023-04-04T07:34:57.153Z,7.70
2023-04-04T07:37:23.729Z,8.68
2023-04-04T07:39:50.705Z,7.10
2023-04-04T07:42:23.144Z,5.80
2023-04-04T07:44:50.884Z,4.68
2023-04-04T07:47:18.474Z,5.63
2023-04-04T07:49:45.222Z,6.05
2023-04-04T07:52:12.123Z,5.10
2023-04-04T07:54:40.461Z,5.05
2023-04-04T07:57:11.716Z,6.63
2023-04-04T07:59:38.844Z,6.43
2023-04-04T08:02:06.603Z,4.60
2023-04-04T08:04:34.364Z,8.20
2023-04-04T08:07:01.007Z,5.47
2023-04-04T08:09:31.561Z,7.00
2023-04-04T08:11:58.334Z,4.93
2023-04-04T08:14:25.283Z,5.05
2023-04-04T08:16:53.019Z,6.32
2023-04-04T08:19:20.465Z,6.40
2023-04-04T08:21:47.121Z,5.65
2023-04-04T08:24:14.546Z,5.13
2023-04-04T08:26:43.574Z,6.40
2023-04-04T08:29:12.242Z,7.65
2023-04-04T08:31:40.828Z,5.13
2023-04-04T08:34:08.872Z,4.53
2023-04-04T08:36:35.820Z,6.10
2023-04-04T08:39:04.019Z,6.05
2023-04-04T08:41:32.821Z,4.70
2023-04-04T08:44:02.113Z,5.22
2023-04-04T08:46:29.953Z,3.85
2023-04-04T08:48:59.742Z,6.00
2023-04-04T08:51:30.770Z,7.32
2023-04-04T08:53:58.780Z,7.13
2023-04-04T08:56:26.206Z,5.43
2023-04-04T08:58:53.049Z,5.32
2023-04-04T09:01:20.004Z,5.65
2023-04-04T09:03:47.277Z,4.70
2023-04-04T09:06:14.940Z,5.78
2023-04-04T09:08:45.778Z,3.47
2023-04-04T09:11:13.864Z,5.88
2023-04-04T09:13:41.582Z,5.15
2023-04-04T09:16:09.661Z,5.90
2023-04-04T09:18:36.906Z,4.88
2023-04-04T09:21:13.377Z,3.97
2023-04-04T09:23:39.970Z,5.43
2023-04-04T09:26:15.324Z,4.53
2023-04-04T09:28:42.328Z,5.47
2023-04-04T09:31:10.297Z,7.40
2023-04-04T09:33:39.348Z,2.97
2023-04-04T09:36:11.206Z,5.85
2023-04-04T09:38:45.626Z,5.18
2023-04-04T09:41:16.230Z,5.93
2023-04-04T09:43:46.917Z,7.15
2023-04-04T09:46:14.499Z,4.50
2023-04-04T09:48:50.585Z,5.45
2023-04-04T09:51:17.271Z,4.05
2023-04-04T09:53:48.655Z,3.85
2023-04-04T09:56:15.957Z,4.18
2023-04-04T09:58:55.958Z,4.22
2023-04-04T10:01:28.692Z,3.33
2023-04-04T10:03:56.115Z,8.02
2023-04-04T10:06:23.090Z,3.47
2023-04-04T10:08:50.009Z,3.25
2023-04-04T10:11:28.928Z,4.28
2023-04-04T10:13:57.907Z,3.67
2023-04-04T10:16:33.666Z,6.10
2023-04-04T10:19:01.728Z,3.40
2023-04-04T10:21:28.623Z,4.20
2023-04-04T10:23:56.730Z,4.07
2023-04-04T10:26:23.296Z,4.05
2023-04-04T10:28:50.779Z,3.30
2023-04-04T10:31:23.007Z,5.03
2023-04-04T10:34:08.856Z,6.80
2023-04-04T10:36:52.244Z,4.53
2023-04-04T10:39:23.560Z,3.70
2023-04-04T10:41:50.891Z,3.05
2023-04-04T10:44:33.586Z,6.32
2023-04-04T10:47:07.109Z,5.15
2023-04-04T10:49:34.339Z,5.00
2023-04-04T10:52:01.648Z,4.80
2023-04-04T10:54:29.247Z,2.95
2023-04-04T10:57:00.931Z,3.30
2023-04-04T10:59:28.598Z,6.45
2023-04-04T11:01:58.027Z,4.68
2023-04-04T11:04:35.736Z,5.10
2023-04-04T11:07:08.318Z,7.97
2023-04-04T11:09:52.830Z,5.97
2023-04-04T11:12:34.757Z,5.45
2023-04-04T11:15:04.610Z,3.92
2023-04-04T11:17:54.711Z,6.25
2023-04-04T11:20:32.061Z,5.43
2023-04-04T11:23:24.111Z,4.78
2023-04-04T11:25:54.500Z,4.38
2023-04-04T11:28:29.239Z,8.05
2023-04-04T11:31:14.657Z,4.68
2023-04-04T11:33:58.058Z,4.50
2023-04-04T11:36:45.795Z,3.92
2023-04-04T11:39:15.937Z,6.57
2023-04-04T11:41:48.896Z,3.90
2023-04-04T11:44:16.258Z,5.85
2023-04-04T11:46:43.038Z,4.38
2023-04-04T11:49:10.528Z,3.28
2023-04-04T11:51:38.921Z,5.47
2023-04-04T11:54:06.777Z,6.22
2023-04-04T11:56:39.430Z,4.10
2023-04-04T11:59:11.637Z,6.28
2023-04-04T12:01:40.785Z,7.05
2023-04-04T12:04:08.054Z,3.53
2023-04-04T12:06:36.441Z,4.22
2023-04-04T12:09:04.249Z,3.67
2023-04-04T12:11:32.156Z,5.93
2023-04-04T12:13:58.988Z,5.97
2023-04-04T12:16:25.647Z,4.50
2023-04-04T12:18:52.350Z,4.05
2023-04-04T12:21:19.522Z,3.88
2023-04-04T12:23:49.404Z,8.07
2023-04-04T12:26:18.816Z,4.10
2023-04-04T12:28:45.719Z,3.95
2023-04-04T12:31:14.177Z,5.50
2023-04-04T12:33:41.403Z,8.13
2023-04-04T12:36:08.418Z,5.07
2023-04-04T12:38:40.278Z,4.30
2023-04-04T12:41:09.623Z,3.58
2023-04-04T12:43:43.569Z,4.68
2023-04-04T12:46:10.434Z,3.30
2023-04-04T12:48:41.257Z,4.18
2023-04-04T12:51:08.890Z,5.72
2023-04-04T12:53:50.242Z,5.70
2023-04-04T12:56:17.385Z,5.57
2023-04-04T12:58:47.628Z,6.38
2023-04-04T13:01:15.724Z,5.20
2023-04-04T13:03:42.929Z,5.13
2023-04-04T13:06:14.492Z,4.30
2023-04-04T13:08:55.050Z,5.13
2023-04-04T13:11:22.762Z,4.60
2023-04-04T13:13:59.691Z,4.65
2023-04-04T13:16:32.438Z,5.45
2023-04-04T13:18:59.223Z,7.43
2023-04-04T13:21:26.478Z,3.85
2023-04-04T13:23:53.226Z,6.82
2023-04-04T13:26:20.311Z,7.25
2023-04-04T13:28:47.920Z,6.45
2023-04-04T13:31:16.060Z,5.05
2023-04-04T13:33:42.866Z,5.70
2023-04-04T13:36:09.594Z,5.85
2023-04-04T13:38:36.695Z,6.90
2023-04-04T13:41:03.601Z,5.43
2023-04-04T13:43:30.461Z,4.63
2023-04-04T13:45:59.137Z,6.93
2023-04-04T13:48:26.534Z,4.30
2023-04-04T13:50:55.491Z,4.88
2023-04-04T13:53:22.476Z,7.00
2023-04-04T13:56:13.054Z,6.60
2023-04-04T13:58:37.504Z,4.85
2023-04-04T14:01:04.862Z,5.78
2023-04-04T14:03:31.700Z,6.57
2023-04-04T14:06:03.815Z,5.18
2023-04-04T14:08:36.295Z,6.95
2023-04-04T14:11:03.314Z,6.72
2023-04-04T14:13:29.960Z,8.73
2023-04-04T14:15:57.243Z,4.93
2023-04-04T14:18:23.992Z,9.68
2023-04-04T14:20:52.367Z,6.85
2023-04-04T14:23:19.184Z,5.47
2023-04-04T14:25:45.859Z,5.68
2023-04-04T14:28:12.573Z,6.47
2023-04-04T14:30:39.244Z,6.40
2023-04-04T14:33:06.033Z,6.43
2023-04-04T14:35:32.906Z,7.05
2023-04-04T14:37:59.643Z,7.53
2023-04-04T14:40:26.572Z,6.47
2023-04-04T14:42:53.279Z,6.03
2023-04-04T14:45:20.196Z,5.57
2023-04-04T14:47:47.076Z,5.18
2023-04-04T14:50:13.598Z,6.43
2023-04-04T14:52:40.417Z,6.15
2023-04-04T14:55:09.407Z,6.55
2023-04-04T14:57:46.906Z,5.15
2023-04-04T15:00:24.400Z,6.53
2023-04-04T15:02:51.530Z,5.32
2023-04-04T15:05:18.774Z,6.65
2023-04-04T15:07:46.702Z,5.22
2023-04-04T15:10:13.437Z,6.35
2023-04-04T15:12:40.099Z,6.60
2023-04-04T15:15:07.076Z,6.88
2023-04-04T15:17:33.685Z,6.32
2023-04-04T15:20:00.653Z,6.65
2023-04-04T15:22:27.390Z,6.18
2023-04-04T15:24:56.121Z,5.68
2023-04-04T15:27:22.718Z,5.65
2023-04-04T15:29:49.629Z,6.95
2023-04-04T15:32:16.218Z,7.95
2023-04-04T15:34:42.843Z,7.35
2023-04-04T15:37:09.826Z,5.57
2023-04-04T15:39:49.714Z,7.47
2023-04-04T15:42:18.766Z,8.13
2023-04-04T15:44:45.345Z,6.75
2023-04-04T15:47:12.084Z,5.65
2023-04-04T15:49:43.102Z,6.35
2023-04-04T15:52:10.470Z,5.97
2023-04-04T15:54:37.177Z,6.85
2023-04-04T15:57:04.050Z,6.30
2023-04-04T15:59:33.540Z,5.68
2023-04-04T16:02:00.478Z,6.95
2023-04-04T16:04:27.352Z,6.55
2023-04-04T16:06:53.950Z,5.85
2023-04-04T16:09:21.632Z,9.20
2023-04-04T16:11:48.599Z,6.30
2023-04-04T16:14:16.103Z,8.55
2023-04-04T16:16:42.944Z,6.32
2023-04-04T16:19:10.433Z,6.70
2023-04-04T16:21:38.025Z,6.68
2023-04-04T16:24:05.364Z,7.53
2023-04-04T16:26:32.334Z,6.97
2023-04-04T16:28:59.087Z,7.03
2023-04-04T16:31:25.752Z,5.35
2023-04-04T16:33:52.324Z,7.65
2023-04-04T16:36:18.957Z,7.57
2023-04-04T16:38:45.839Z,7.32
2023-04-04T16:41:12.604Z,7.72
2023-04-04T16:43:39.557Z,5.47
2023-04-04T16:46:06.192Z,9.88
2023-04-04T16:48:33.230Z,7.07
2023-04-04T16:51:00.041Z,6.57
2023-04-04T16:53:26.535Z,7.70
2023-04-04T16:55:53.606Z,10.35
2023-04-04T16:58:20.429Z,6.45
2023-04-04T17:00:47.421Z,9.13
2023-04-04T17:03:14.246Z,7.82
2023-04-04T17:05:41.000Z,7.70
2023-04-04T17:08:07.888Z,9.52
2023-04-04T17:10:34.705Z,6.82
2023-04-04T17:13:02.159Z,7.90
2023-04-04T17:15:29.920Z,7.22
2023-04-04T17:17:56.681Z,8.68
2023-04-04T17:20:24.172Z,7.13
2023-04-04T17:22:52.005Z,10.15
2023-04-04T17:25:20.698Z,9.02
2023-04-04T17:27:47.363Z,8.27
2023-04-04T17:30:14.435Z,9.15
2023-04-04T17:32:41.365Z,8.52
2023-04-04T17:35:08.432Z,10.65
2023-04-04T17:37:35.035Z,8.20
2023-04-04T17:40:04.219Z,11.02
2023-04-04T17:42:30.944Z,9.20
2023-04-04T17:44:57.626Z,11.30
2023-04-04T17:47:24.476Z,10.70
2023-04-04T17:49:54.246Z,9.23
2023-04-04T17:52:20.979Z,6.65
2023-04-04T17:54:52.616Z,7.57
2023-04-04T17:57:19.668Z,8.00
2023-04-04T17:59:47.213Z,8.50
2023-04-04T18:02:14.287Z,8.75
2023-04-04T18:04:40.983Z,8.63
2023-04-04T18:07:09.124Z,8.43
2023-04-04T18:09:35.646Z,9.32
2023-04-04T18:12:02.825Z,8.30
2023-04-04T18:14:29.804Z,8.80
2023-04-04T18:16:56.887Z,7.35
2023-04-04T18:19:23.645Z,8.02
2023-04-04T18:21:51.661Z,11.30
2023-04-04T18:24:18.310Z,11.95
2023-04-04T18:26:45.538Z,9.07
2023-04-04T18:29:12.973Z,8.77
2023-04-04T18:31:39.745Z,10.65
2023-04-04T18:34:06.892Z,8.68
2023-04-04T18:36:33.700Z,8.95
2023-04-04T18:39:01.971Z,7.75
2023-04-04T18:41:28.706Z,6.88
2023-04-04T18:43:55.911Z,9.43
2023-04-04T18:46:23.214Z,9.93
2023-04-04T18:48:49.847Z,6.75
2023-04-04T18:51:16.617Z,7.72
2023-04-04T18:53:43.774Z,8.25
2023-04-04T18:56:10.850Z,7.35
2023-04-04T18:58:37.526Z,9.93
2023-04-04T19:01:04.414Z,8.20
2023-04-04T19:03:35.410Z,8.98
2023-04-04T19:06:05.159Z,7.82
2023-04-04T19:08:33.664Z,11.52
2023-04-04T19:11:00.275Z,12.43
2023-04-04T19:13:27.595Z,8.75
2023-04-04T19:15:54.350Z,9.57
2023-04-04T19:18:20.912Z,8.95
2023-04-04T19:20:47.564Z,8.60
2023-04-04T19:23:14.273Z,9.13
2023-04-04T19:25:41.406Z,9.93
2023-04-04T19:28:08.424Z,9.43
2023-04-04T19:30:39.818Z,9.57
2023-04-04T19:33:13.593Z,9.02
2023-04-04T19:36:00.402Z,10.05
2023-04-04T19:38:33.144Z,9.55
2023-04-04T19:41:00.714Z,9.10
2023-04-04T19:43:27.878Z,8.77
2023-04-04T19:45:58.467Z,9.57
2023-04-04T19:48:37.569Z,11.10
2023-04-04T19:51:07.290Z,10.60
2023-04-04T19:53:35.029Z,10.82
2023-04-04T19:56:06.462Z,11.07
2023-04-04T19:58:33.391Z,10.98
2023-04-04T20:00:59.898Z,9.07
2023-04-04T20:03:39.536Z,10.10
2023-04-04T20:06:06.597Z,8.10
2023-04-04T20:08:44.556Z,7.68
2023-04-04T20:11:12.082Z,10.90
2023-04-04T20:13:39.532Z,10.55
2023-04-04T20:16:16.281Z,10.75
2023-04-04T20:18:44.353Z,11.15
2023-04-04T20:21:13.679Z,9.50
2023-04-04T20:24:02.718Z,9.25
2023-04-04T20:26:38.707Z,10.27
2023-04-04T20:29:09.298Z,11.73
2023-04-04T20:31:41.543Z,10.25
2023-04-04T20:34:23.640Z,10.30
2023-04-04T20:36:55.020Z,12.68
2023-04-04T20:39:54.221Z,10.30
2023-04-04T20:42:30.369Z,10.52
2023-04-04T20:45:02.836Z,10.25
2023-04-04T20:47:43.267Z,12.07
2023-04-04T20:50:16.657Z,10.38
2023-04-04T20:52:50.672Z,12.23
2023-04-04T20:55:18.103Z,11.93
2023-04-04T20:57:47.633Z,11.68
2023-04-04T21:00:35.780Z,10.65
2023-04-04T21:03:09.806Z,13.98
2023-04-04T21:05:38.859Z,10.63
2023-04-04T21:08:20.612Z,11.15
2023-04-04T21:10:50.796Z,11.10
2023-04-04T21:13:24.393Z,11.80
2023-04-04T21:15:51.211Z,15.05
2023-04-04T21:18:22.745Z,11.48
2023-04-04T21:20:49.742Z,11.90
2023-04-04T21:23:19.505Z,10.30
2023-04-04T21:25:46.266Z,13.05
2023-04-04T21:28:13.060Z,11.57
2023-04-04T21:30:44.127Z,10.15
2023-04-04T21:33:16.529Z,11.50
2023-04-04T21:35:50.294Z,11.38
2023-04-04T21:38:29.974Z,10.40
2023-04-04T21:41:00.090Z,14.43
2023-04-04T21:43:27.309Z,12.38
2023-04-04T21:45:57.022Z,13.40
2023-04-04T21:48:28.174Z,17.05
2023-04-04T21:50:55.260Z,14.25
2023-04-04T21:53:22.891Z,11.32
2023-04-04T21:55:49.597Z,12.73
2023-04-04T21:58:17.022Z,12.02
2023-04-04T22:00:43.859Z,13.38
2023-04-04T22:03:10.834Z,13.18
2023-04-04T22:05:39.564Z,11.73
2023-04-04T22:08:06.730Z,15.20
2023-04-04T22:10:33.729Z,13.57
2023-04-04T22:13:01.930Z,13.38
2023-04-04T22:15:29.699Z,16.58
2023-04-04T22:18:03.910Z,16.05
2023-04-04T22:20:33.776Z,13.57
2023-04-04T22:23:05.309Z,13.43
2023-04-04T22:25:33.936Z,16.63
2023-04-04T22:28:03.263Z,15.38
2023-04-04T22:30:31.733Z,16.25
2023-04-04T22:33:03.306Z,20.42
2023-04-04T22:35:30.178Z,16.38
2023-04-04T22:38:03.842Z,17.52
2023-04-04T22:40:32.198Z,17.60
2023-04-04T22:42:59.680Z,18.48
2023-04-04T22:45:26.927Z,17.10
2023-04-04T22:47:55.048Z,19.98
2023-04-04T22:50:25.325Z,17.95
2023-04-04T22:52:54.748Z,17.92
2023-04-04T22:55:24.873Z,18.85
2023-04-04T22:57:51.638Z,22.33
2023-04-04T23:00:19.181Z,16.45
2023-04-04T23:02:46.647Z,28.25
2023-04-04T23:05:14.433Z,19.05
2023-04-04T23:07:41.886Z,17.23
2023-04-04T23:10:09.818Z,21.42
2023-04-04T23:12:37.106Z,18.55
2023-04-04T23:15:04.357Z,21.15
2023-04-04T23:17:32.569Z,20.65
2023-04-04T23:19:59.910Z,22.63
2023-04-04T23:22:27.601Z,21.65
2023-04-04T23:24:54.489Z,20.50
2023-04-04T23:27:21.212Z,21.85
2023-04-04T23:29:50.881Z,21.45
2023-04-04T23:32:17.941Z,18.92
2023-04-04T23:34:44.761Z,18.77
2023-04-04T23:37:12.254Z,20.90
2023-04-04T23:39:38.850Z,20.38
2023-04-04T23:42:05.632Z,23.95
2023-04-04T23:44:32.489Z,20.40
2023-04-04T23:46:59.241Z,26.60
2023-04-04T23:49:26.097Z,20.50
2023-04-04T23:51:52.791Z,19.35
2023-04-04T23:54:19.300Z,23.42
2023-04-04T23:56:46.149Z,22.33
2023-04-04T23:59:12.951Z,24.67
